sensor_id;sensor_type;location;lat;lon;timestamp;temperature;humidity
81902;DHT22;71369;50.796;3.290;2024-01-27T00:08:18;2.60;99.90
81902;DHT22;71369;50.796;3.290;2024-01-27T00:11:21;2.50;99.90
81902;DHT22;71369;50.796;3.290;2024-01-27T00:14:31;2.60;99.90
81902;DHT22;71369;50.796;3.290;2024-01-27T00:17:24;2.40;99.90
81902;DHT22;71369;50.796;3.290;2024-01-27T00:20:11;2.40;99.90
81902;DHT22;71369;50.796;3.290;2024-01-27T00:26:47;2.40;99.90
81902;DHT22;71369;50.796;3.290;2024-01-27T00:29:26;2.30;99.90
81902;DHT22;71369;50.796;3.290;2024-01-27T00:32:22;2.30;99.90
81902;DHT22;71369;50.796;3.290;2024-01-27T00:35:07;2.30;99.90
81902;DHT22;71369;50.796;3.290;2024-01-27T00:38:05;2.30;99.90
81902;DHT22;71369;50.796;3.290;2024-01-27T00:44:02;2.30;99.90
81902;DHT22;71369;50.796;3.290;2024-01-27T00:47:12;2.20;99.90
81902;DHT22;71369;50.796;3.290;2024-01-27T00:53:40;2.20;99.90
81902;DHT22;71369;50.796;3.290;2024-01-27T00:56:49;2.20;99.90
81902;DHT22;71369;50.796;3.290;2024-01-27T00:59:50;2.20;99.90
81902;DHT22;71369;50.796;3.290;2024-01-27T01:05:53;2.20;99.90
81902;DHT22;71369;50.796;3.290;2024-01-27T01:08:57;2.20;99.90
81902;DHT22;71369;50.796;3.290;2024-01-27T01:21:56;2.00;99.90
81902;DHT22;71369;50.796;3.290;2024-01-27T01:24:55;2.00;99.90
81902;DHT22;71369;50.796;3.290;2024-01-27T01:31:48;2.00;99.90
81902;DHT22;71369;50.796;3.290;2024-01-27T01:52:20;1.70;99.90
81902;DHT22;71369;50.796;3.290;2024-01-27T01:54:57;1.50;99.90
81902;DHT22;71369;50.796;3.290;2024-01-27T02:16:26;1.50;99.90
81902;DHT22;71369;50.796;3.290;2024-01-27T02:22:36;1.40;99.90
81902;DHT22;71369;50.796;3.290;2024-01-27T02:25:55;1.30;99.90
81902;DHT22;71369;50.796;3.290;2024-01-27T02:28:28;1.40;99.90
81902;DHT22;71369;50.796;3.290;2024-01-27T02:31:02;1.40;99.90
81902;DHT22;71369;50.796;3.290;2024-01-27T02:37:07;1.40;99.90
81902;DHT22;71369;50.796;3.290;2024-01-27T02:39:57;1.40;99.90
81902;DHT22;71369;50.796;3.290;2024-01-27T02:42:31;1.40;99.90
81902;DHT22;71369;50.796;3.290;2024-01-27T02:45:19;1.30;99.90
81902;DHT22;71369;50.796;3.290;2024-01-27T02:47:56;1.20;99.90
81902;DHT22;71369;50.796;3.290;2024-01-27T02:50:30;1.30;99.90
81902;DHT22;71369;50.796;3.290;2024-01-27T02:53:10;1.30;99.90
81902;DHT22;71369;50.796;3.290;2024-01-27T03:02:51;1.30;99.90
81902;DHT22;71369;50.796;3.290;2024-01-27T03:16:08;1.00;99.90
81902;DHT22;71369;50.796;3.290;2024-01-27T03:19:12;1.10;99.90
81902;DHT22;71369;50.796;3.290;2024-01-27T03:25:34;1.00;99.90
81902;DHT22;71369;50.796;3.290;2024-01-27T03:41:31;0.90;99.90
81902;DHT22;71369;50.796;3.290;2024-01-27T03:47:39;0.90;99.90
81902;DHT22;71369;50.796;3.290;2024-01-27T03:57:29;1.10;99.90
81902;DHT22;71369;50.796;3.290;2024-01-27T03:59:58;1.00;99.90
81902;DHT22;71369;50.796;3.290;2024-01-27T04:02:46;1.10;99.90
81902;DHT22;71369;50.796;3.290;2024-01-27T04:06:39;0.90;99.90
81902;DHT22;71369;50.796;3.290;2024-01-27T04:12:21;1.00;99.90
81902;DHT22;71369;50.796;3.290;2024-01-27T04:15:33;1.00;99.90
81902;DHT22;71369;50.796;3.290;2024-01-27T04:18:07;1.00;99.90
81902;DHT22;71369;50.796;3.290;2024-01-27T04:20:51;1.00;99.90
81902;DHT22;71369;50.796;3.290;2024-01-27T04:23:44;1.10;99.90
81902;DHT22;71369;50.796;3.290;2024-01-27T04:26:25;1.20;99.90
81902;DHT22;71369;50.796;3.290;2024-01-27T04:29:06;1.20;99.90
81902;DHT22;71369;50.796;3.290;2024-01-27T04:31:39;1.10;99.90
81902;DHT22;71369;50.796;3.290;2024-01-27T04:34:07;1.20;99.90
81902;DHT22;71369;50.796;3.290;2024-01-27T04:36:46;1.40;99.90
81902;DHT22;71369;50.796;3.290;2024-01-27T04:42:27;1.40;99.90
81902;DHT22;71369;50.796;3.290;2024-01-27T04:47:50;1.40;99.90
81902;DHT22;71369;50.796;3.290;2024-01-27T04:53:25;1.40;99.90
81902;DHT22;71369;50.796;3.290;2024-01-27T04:55:53;1.40;99.90
81902;DHT22;71369;50.796;3.290;2024-01-27T04:58:21;1.40;99.90
81902;DHT22;71369;50.796;3.290;2024-01-27T05:00:59;1.40;99.90
81902;DHT22;71369;50.796;3.290;2024-01-27T05:03:53;1.50;99.90
81902;DHT22;71369;50.796;3.290;2024-01-27T05:06:23;1.40;99.90
81902;DHT22;71369;50.796;3.290;2024-01-27T05:09:04;1.50;99.90
81902;DHT22;71369;50.796;3.290;2024-01-27T05:11:35;1.60;99.90
81902;DHT22;71369;50.796;3.290;2024-01-27T05:14:24;1.50;99.90
81902;DHT22;71369;50.796;3.290;2024-01-27T05:16:50;1.60;99.90
81902;DHT22;71369;50.796;3.290;2024-01-27T05:19:16;1.60;99.90
81902;DHT22;71369;50.796;3.290;2024-01-27T05:21:45;1.60;99.90
81902;DHT22;71369;50.796;3.290;2024-01-27T05:27:42;1.50;99.90
81902;DHT22;71369;50.796;3.290;2024-01-27T05:30:28;1.40;99.90
81902;DHT22;71369;50.796;3.290;2024-01-27T05:33:02;1.60;99.90
81902;DHT22;71369;50.796;3.290;2024-01-27T05:39:00;1.40;99.90
81902;DHT22;71369;50.796;3.290;2024-01-27T05:42:14;1.30;99.90
81902;DHT22;71369;50.796;3.290;2024-01-27T05:48:31;1.20;99.90
81902;DHT22;71369;50.796;3.290;2024-01-27T05:51:07;1.20;99.90
81902;DHT22;71369;50.796;3.290;2024-01-27T05:53:43;1.20;99.90
81902;DHT22;71369;50.796;3.290;2024-01-27T06:03:31;1.20;99.90
81902;DHT22;71369;50.796;3.290;2024-01-27T06:06:28;1.10;99.90
81902;DHT22;71369;50.796;3.290;2024-01-27T06:09:46;1.20;99.90
81902;DHT22;71369;50.796;3.290;2024-01-27T06:12:23;1.40;99.90
81902;DHT22;71369;50.796;3.290;2024-01-27T06:14:56;1.40;99.90
81902;DHT22;71369;50.796;3.290;2024-01-27T06:17:24;1.40;99.90
81902;DHT22;71369;50.796;3.290;2024-01-27T06:19:55;1.40;99.90
81902;DHT22;71369;50.796;3.290;2024-01-27T06:22:30;1.30;99.90
81902;DHT22;71369;50.796;3.290;2024-01-27T06:24:58;1.40;99.90
81902;DHT22;71369;50.796;3.290;2024-01-27T06:30:35;1.30;99.90
81902;DHT22;71369;50.796;3.290;2024-01-27T06:35:52;1.20;99.90
81902;DHT22;71369;50.796;3.290;2024-01-27T06:41:47;1.20;99.90
81902;DHT22;71369;50.796;3.290;2024-01-27T06:44:13;1.20;99.90
81902;DHT22;71369;50.796;3.290;2024-01-27T06:46:43;1.20;99.90
81902;DHT22;71369;50.796;3.290;2024-01-27T06:49:12;1.20;99.90
81902;DHT22;71369;50.796;3.290;2024-01-27T06:51:46;1.10;99.90
81902;DHT22;71369;50.796;3.290;2024-01-27T06:54:11;1.10;99.90
81902;DHT22;71369;50.796;3.290;2024-01-27T06:56:41;1.10;99.90
81902;DHT22;71369;50.796;3.290;2024-01-27T06:59:06;1.00;99.90
81902;DHT22;71369;50.796;3.290;2024-01-27T07:05:18;1.10;99.90
81902;DHT22;71369;50.796;3.290;2024-01-27T07:11:08;1.20;99.90
81902;DHT22;71369;50.796;3.290;2024-01-27T07:13:34;1.10;99.90
81902;DHT22;71369;50.796;3.290;2024-01-27T07:16:00;1.10;99.90
81902;DHT22;71369;50.796;3.290;2024-01-27T07:18:25;1.10;99.90
81902;DHT22;71369;50.796;3.290;2024-01-27T07:20:52;1.00;99.90
81902;DHT22;71369;50.796;3.290;2024-01-27T07:23:27;0.90;99.90
81902;DHT22;71369;50.796;3.290;2024-01-27T07:26:09;0.90;99.90
81902;DHT22;71369;50.796;3.290;2024-01-27T07:28:42;1.00;99.90
81902;DHT22;71369;50.796;3.290;2024-01-27T07:31:13;1.10;99.90
81902;DHT22;71369;50.796;3.290;2024-01-27T07:33:58;1.00;99.90
81902;DHT22;71369;50.796;3.290;2024-01-27T07:36:26;1.00;99.90
81902;DHT22;71369;50.796;3.290;2024-01-27T07:39:40;1.10;99.90
81902;DHT22;71369;50.796;3.290;2024-01-27T07:42:06;1.10;99.90
81902;DHT22;71369;50.796;3.290;2024-01-27T07:44:32;1.20;99.90
81902;DHT22;71369;50.796;3.290;2024-01-27T07:47:06;1.10;99.90
81902;DHT22;71369;50.796;3.290;2024-01-27T07:49:43;1.20;99.90
81902;DHT22;71369;50.796;3.290;2024-01-27T07:52:11;1.20;99.90
81902;DHT22;71369;50.796;3.290;2024-01-27T07:54:39;1.30;99.90
81902;DHT22;71369;50.796;3.290;2024-01-27T07:57:06;1.20;99.90
81902;DHT22;71369;50.796;3.290;2024-01-27T07:59:34;1.20;99.90
81902;DHT22;71369;50.796;3.290;2024-01-27T08:02:06;1.30;99.90
81902;DHT22;71369;50.796;3.290;2024-01-27T08:04:34;1.30;99.90
81902;DHT22;71369;50.796;3.290;2024-01-27T08:07:02;1.40;99.90
81902;DHT22;71369;50.796;3.290;2024-01-27T08:09:35;1.40;99.90
81902;DHT22;71369;50.796;3.290;2024-01-27T08:12:15;1.40;99.90
81902;DHT22;71369;50.796;3.290;2024-01-27T08:14:53;1.50;99.90
81902;DHT22;71369;50.796;3.290;2024-01-27T08:17:27;1.60;99.90
81902;DHT22;71369;50.796;3.290;2024-01-27T08:20:04;1.60;99.90
81902;DHT22;71369;50.796;3.290;2024-01-27T08:22:39;1.70;99.90
81902;DHT22;71369;50.796;3.290;2024-01-27T08:25:16;1.90;99.90
81902;DHT22;71369;50.796;3.290;2024-01-27T08:27:45;2.10;99.90
81902;DHT22;71369;50.796;3.290;2024-01-27T08:30:16;2.20;99.90
81902;DHT22;71369;50.796;3.290;2024-01-27T08:32:54;2.40;99.90
81902;DHT22;71369;50.796;3.290;2024-01-27T08:35:33;2.50;99.90
81902;DHT22;71369;50.796;3.290;2024-01-27T08:41:44;2.90;99.90
81902;DHT22;71369;50.796;3.290;2024-01-27T08:48:09;3.80;99.90
81902;DHT22;71369;50.796;3.290;2024-01-27T08:50:40;4.10;99.90
81902;DHT22;71369;50.796;3.290;2024-01-27T09:03:50;4.50;99.90
81902;DHT22;71369;50.796;3.290;2024-01-27T09:07:16;4.70;99.90
81902;DHT22;71369;50.796;3.290;2024-01-27T09:17:00;4.50;99.90
81902;DHT22;71369;50.796;3.290;2024-01-27T09:26:33;5.50;99.90
81902;DHT22;71369;50.796;3.290;2024-01-27T09:29:34;5.40;99.90
81902;DHT22;71369;50.796;3.290;2024-01-27T09:32:31;5.40;99.90
81902;DHT22;71369;50.796;3.290;2024-01-27T09:35:13;5.50;99.90
81902;DHT22;71369;50.796;3.290;2024-01-27T09:38:40;5.60;99.90
81902;DHT22;71369;50.796;3.290;2024-01-27T09:45:45;5.40;99.90
81902;DHT22;71369;50.796;3.290;2024-01-27T10:42:12;9.10;99.40
81902;DHT22;71369;50.796;3.290;2024-01-27T11:40:28;11.40;83.10
81902;DHT22;71369;50.796;3.290;2024-01-27T11:43:05;11.30;89.60
81902;DHT22;71369;50.796;3.290;2024-01-27T11:45:37;11.00;88.60
81902;DHT22;71369;50.796;3.290;2024-01-27T11:48:04;10.40;92.60
81902;DHT22;71369;50.796;3.290;2024-01-27T11:50:32;10.40;94.70
81902;DHT22;71369;50.796;3.290;2024-01-27T11:53:07;10.20;95.30
81902;DHT22;71369;50.796;3.290;2024-01-27T11:55:56;9.80;95.70
81902;DHT22;71369;50.796;3.290;2024-01-27T11:58:26;9.70;98.50
81902;DHT22;71369;50.796;3.290;2024-01-27T12:00:57;10.00;96.90
81902;DHT22;71369;50.796;3.290;2024-01-27T12:03:36;10.40;94.80
81902;DHT22;71369;50.796;3.290;2024-01-27T12:06:09;10.30;95.30
81902;DHT22;71369;50.796;3.290;2024-01-27T12:08:44;10.50;93.60
81902;DHT22;71369;50.796;3.290;2024-01-27T12:11:22;10.50;95.30
81902;DHT22;71369;50.796;3.290;2024-01-27T12:13:48;10.80;91.10
81902;DHT22;71369;50.796;3.290;2024-01-27T12:16:21;11.20;90.00
81902;DHT22;71369;50.796;3.290;2024-01-27T12:18:53;11.50;82.30
81902;DHT22;71369;50.796;3.290;2024-01-27T12:21:52;11.70;82.70
81902;DHT22;71369;50.796;3.290;2024-01-27T12:24:23;11.90;77.10
81902;DHT22;71369;50.796;3.290;2024-01-27T12:27:02;12.10;76.40
81902;DHT22;71369;50.796;3.290;2024-01-27T12:29:33;12.20;76.10
81902;DHT22;71369;50.796;3.290;2024-01-27T12:32:00;11.80;80.60
81902;DHT22;71369;50.796;3.290;2024-01-27T12:34:44;12.00;79.30
81902;DHT22;71369;50.796;3.290;2024-01-27T12:43:48;12.20;71.90
81902;DHT22;71369;50.796;3.290;2024-01-27T12:46:20;12.10;73.10
81902;DHT22;71369;50.796;3.290;2024-01-27T12:48:54;12.00;74.40
81902;DHT22;71369;50.796;3.290;2024-01-27T12:51:42;12.00;74.70
81902;DHT22;71369;50.796;3.290;2024-01-27T12:54:19;11.70;76.90
81902;DHT22;71369;50.796;3.290;2024-01-27T12:56:45;11.60;75.00
81902;DHT22;71369;50.796;3.290;2024-01-27T12:59:13;11.10;79.00
81902;DHT22;71369;50.796;3.290;2024-01-27T13:02:10;10.60;83.40
81902;DHT22;71369;50.796;3.290;2024-01-27T13:04:38;10.30;89.70
81902;DHT22;71369;50.796;3.290;2024-01-27T13:07:24;9.90;92.10
81902;DHT22;71369;50.796;3.290;2024-01-27T13:09:50;9.70;94.60
81902;DHT22;71369;50.796;3.290;2024-01-27T13:16:04;9.30;97.10
81902;DHT22;71369;50.796;3.290;2024-01-27T13:18:43;9.50;96.00
81902;DHT22;71369;50.796;3.290;2024-01-27T13:21:19;9.60;92.70
81902;DHT22;71369;50.796;3.290;2024-01-27T13:24:11;9.60;94.20
81902;DHT22;71369;50.796;3.290;2024-01-27T13:49:34;10.80;80.10
81902;DHT22;71369;50.796;3.290;2024-01-27T14:59:11;8.90;94.10
81902;DHT22;71369;50.796;3.290;2024-01-27T15:25:39;8.00;98.00
81902;DHT22;71369;50.796;3.290;2024-01-27T15:28:27;7.90;98.50
81902;DHT22;71369;50.796;3.290;2024-01-27T15:34:34;7.80;99.90
81902;DHT22;71369;50.796;3.290;2024-01-27T15:41:01;7.60;99.90
81902;DHT22;71369;50.796;3.290;2024-01-27T15:43:38;7.60;99.90
81902;DHT22;71369;50.796;3.290;2024-01-27T15:54:22;7.20;99.90
81902;DHT22;71369;50.796;3.290;2024-01-27T19:31:30;2.60;99.90
81902;DHT22;71369;50.796;3.290;2024-01-27T19:33:57;2.60;99.90
81902;DHT22;71369;50.796;3.290;2024-01-27T19:36:26;2.40;99.90
81902;DHT22;71369;50.796;3.290;2024-01-27T19:38:53;2.40;99.90
81902;DHT22;71369;50.796;3.290;2024-01-27T19:41:20;2.50;99.90
81902;DHT22;71369;50.796;3.290;2024-01-27T19:44:15;2.50;99.90
81902;DHT22;71369;50.796;3.290;2024-01-27T19:46:41;2.50;99.90
81902;DHT22;71369;50.796;3.290;2024-01-27T19:49:07;2.50;99.90
81902;DHT22;71369;50.796;3.290;2024-01-27T19:51:34;2.60;99.90
81902;DHT22;71369;50.796;3.290;2024-01-27T19:54:07;2.60;99.90
81902;DHT22;71369;50.796;3.290;2024-01-27T19:56:35;2.70;99.90
81902;DHT22;71369;50.796;3.290;2024-01-27T19:59:21;2.70;99.90
81902;DHT22;71369;50.796;3.290;2024-01-27T20:01:47;2.80;99.90
81902;DHT22;71369;50.796;3.290;2024-01-27T20:04:12;2.80;99.90
81902;DHT22;71369;50.796;3.290;2024-01-27T20:06:38;2.80;99.90
81902;DHT22;71369;50.796;3.290;2024-01-27T20:09:06;2.70;99.90
81902;DHT22;71369;50.796;3.290;2024-01-27T20:11:32;2.60;99.90
81902;DHT22;71369;50.796;3.290;2024-01-27T20:14:05;2.60;99.90
81902;DHT22;71369;50.796;3.290;2024-01-27T20:16:33;2.60;99.90
81902;DHT22;71369;50.796;3.290;2024-01-27T20:18:59;2.70;99.90
81902;DHT22;71369;50.796;3.290;2024-01-27T20:21:25;2.70;99.90
81902;DHT22;71369;50.796;3.290;2024-01-27T20:23:51;2.70;99.90
81902;DHT22;71369;50.796;3.290;2024-01-27T20:26:17;2.60;99.90
81902;DHT22;71369;50.796;3.290;2024-01-27T20:28:45;2.60;99.90
81902;DHT22;71369;50.796;3.290;2024-01-27T20:31:14;2.60;99.90
81902;DHT22;71369;50.796;3.290;2024-01-27T20:33:40;2.60;99.90
81902;DHT22;71369;50.796;3.290;2024-01-27T20:36:12;2.60;99.90
81902;DHT22;71369;50.796;3.290;2024-01-27T20:38:38;2.70;99.90
81902;DHT22;71369;50.796;3.290;2024-01-27T20:41:07;2.70;99.90
81902;DHT22;71369;50.796;3.290;2024-01-27T20:43:38;2.60;99.90
81902;DHT22;71369;50.796;3.290;2024-01-27T20:46:13;2.50;99.90
81902;DHT22;71369;50.796;3.290;2024-01-27T20:48:40;2.60;99.90
81902;DHT22;71369;50.796;3.290;2024-01-27T20:51:09;2.60;99.90
81902;DHT22;71369;50.796;3.290;2024-01-27T20:53:40;2.70;99.90
81902;DHT22;71369;50.796;3.290;2024-01-27T20:56:08;2.60;99.90
81902;DHT22;71369;50.796;3.290;2024-01-27T20:58:51;2.60;99.90
81902;DHT22;71369;50.796;3.290;2024-01-27T21:01:23;2.60;99.90
81902;DHT22;71369;50.796;3.290;2024-01-27T21:03:51;2.60;99.90
81902;DHT22;71369;50.796;3.290;2024-01-27T21:06:16;2.70;99.90
81902;DHT22;71369;50.796;3.290;2024-01-27T21:08:42;2.70;99.90
81902;DHT22;71369;50.796;3.290;2024-01-27T21:11:08;2.70;99.90
81902;DHT22;71369;50.796;3.290;2024-01-27T21:13:42;2.60;99.90
81902;DHT22;71369;50.796;3.290;2024-01-27T21:16:13;2.40;99.90
81902;DHT22;71369;50.796;3.290;2024-01-27T21:19:05;2.30;99.90
81902;DHT22;71369;50.796;3.290;2024-01-27T21:21:31;2.30;99.90
81902;DHT22;71369;50.796;3.290;2024-01-27T21:23:57;2.30;99.90
81902;DHT22;71369;50.796;3.290;2024-01-27T21:26:23;2.30;99.90
81902;DHT22;71369;50.796;3.290;2024-01-27T21:28:49;2.30;99.90
81902;DHT22;71369;50.796;3.290;2024-01-27T21:31:15;2.30;99.90
81902;DHT22;71369;50.796;3.290;2024-01-27T21:43:54;2.10;99.90
81902;DHT22;71369;50.796;3.290;2024-01-27T21:46:45;2.20;99.90
81902;DHT22;71369;50.796;3.290;2024-01-27T21:53:06;2.30;99.90
81902;DHT22;71369;50.796;3.290;2024-01-27T21:56:19;2.40;99.90
81902;DHT22;71369;50.796;3.290;2024-01-27T22:08:42;2.40;99.90
81902;DHT22;71369;50.796;3.290;2024-01-27T22:22:08;2.50;99.90
81902;DHT22;71369;50.796;3.290;2024-01-27T22:28:52;2.70;99.90
81902;DHT22;71369;50.796;3.290;2024-01-27T22:31:57;2.70;99.90
81902;DHT22;71369;50.796;3.290;2024-01-27T22:41:36;2.70;99.90
81902;DHT22;71369;50.796;3.290;2024-01-27T22:44:13;2.70;99.90
81902;DHT22;71369;50.796;3.290;2024-01-27T22:47:14;2.60;99.90
81902;DHT22;71369;50.796;3.290;2024-01-27T23:07:16;2.70;99.90
81902;DHT22;71369;50.796;3.290;2024-01-27T23:10:32;2.60;99.90
81902;DHT22;71369;50.796;3.290;2024-01-27T23:13:33;2.50;99.90
81902;DHT22;71369;50.796;3.290;2024-01-27T23:16:16;2.60;99.90
81902;DHT22;71369;50.796;3.290;2024-01-27T23:18:49;2.50;99.90
81902;DHT22;71369;50.796;3.290;2024-01-27T23:25:04;2.60;99.90
81902;DHT22;71369;50.796;3.290;2024-01-27T23:28:12;2.70;99.90
81902;DHT22;71369;50.796;3.290;2024-01-27T23:30:51;2.50;99.90
81902;DHT22;71369;50.796;3.290;2024-01-27T23:34:06;2.40;99.90
81902;DHT22;71369;50.796;3.290;2024-01-27T23:36:47;2.30;99.90
81902;DHT22;71369;50.796;3.290;2024-01-27T23:39:38;2.30;99.90
81902;DHT22;71369;50.796;3.290;2024-01-27T23:42:18;2.10;99.90
81902;DHT22;71369;50.796;3.290;2024-01-27T23:51:57;2.10;99.90
81902;DHT22;71369;50.796;3.290;2024-01-27T23:54:35;2.00;99.90
81902;DHT22;71369;50.796;3.290;2024-01-27T23:57:19;1.90;99.90
81902;DHT22;71369;50.796;3.290;2024-01-27T23:59:55;1.80;99.90
